sensor_id;sensor_type;location;lat;lon;timestamp;P1;durP1;ratioP1;P2;durP2;ratioP2
22628;SDS011;11481;53.694;9.910;2022-07-05T00:01:35;1.60;;;0.80;;
22628;SDS011;11481;53.694;9.910;2022-07-05T00:04:02;0.98;;;0.65;;
22628;SDS011;11481;53.694;9.910;2022-07-05T00:06:29;1.73;;;0.85;;
22628;SDS011;11481;53.694;9.910;2022-07-05T00:08:55;3.00;;;0.80;;
22628;SDS011;11481;53.694;9.910;2022-07-05T00:11:22;1.33;;;0.70;;
22628;SDS011;11481;53.694;9.910;2022-07-05T00:13:49;2.40;;;1.17;;
22628;SDS011;11481;53.694;9.910;2022-07-05T00:16:15;1.13;;;0.50;;
22628;SDS011;11481;53.694;9.910;2022-07-05T00:18:42;0.88;;;0.43;;
22628;SDS011;11481;53.694;9.910;2022-07-05T00:21:09;0.73;;;0.52;;
22628;SDS011;11481;53.694;9.910;2022-07-05T00:23:36;2.63;;;0.68;;
22628;SDS011;11481;53.694;9.910;2022-07-05T00:26:02;0.90;;;0.40;;
22628;SDS011;11481;53.694;9.910;2022-07-05T00:28:29;1.20;;;0.70;;
22628;SDS011;11481;53.694;9.910;2022-07-05T00:30:56;1.17;;;0.73;;
22628;SDS011;11481;53.694;9.910;2022-07-05T00:33:23;0.68;;;0.43;;
22628;SDS011;11481;53.694;9.910;2022-07-05T00:35:49;1.17;;;0.50;;
22628;SDS011;11481;53.694;9.910;2022-07-05T00:38:16;0.77;;;0.50;;
22628;SDS011;11481;53.694;9.910;2022-07-05T00:40:42;0.65;;;0.45;;
22628;SDS011;11481;53.694;9.910;2022-07-05T00:43:10;0.95;;;0.60;;
22628;SDS011;11481;53.694;9.910;2022-07-05T00:45:36;2.97;;;0.95;;
22628;SDS011;11481;53.694;9.910;2022-07-05T00:48:03;1.58;;;0.75;;
22628;SDS011;11481;53.694;9.910;2022-07-05T00:50:30;0.60;;;0.45;;
22628;SDS011;11481;53.694;9.910;2022-07-05T00:52:57;0.85;;;0.50;;
22628;SDS011;11481;53.694;9.910;2022-07-05T00:55:25;0.77;;;0.55;;
22628;SDS011;11481;53.694;9.910;2022-07-05T00:57:52;3.05;;;0.85;;
22628;SDS011;11481;53.694;9.910;2022-07-05T01:00:20;1.15;;;0.70;;
22628;SDS011;11481;53.694;9.910;2022-07-05T01:02:46;2.60;;;0.50;;
22628;SDS011;11481;53.694;9.910;2022-07-05T01:05:13;5.10;;;0.68;;
22628;SDS011;11481;53.694;9.910;2022-07-05T01:07:40;2.15;;;0.77;;
22628;SDS011;11481;53.694;9.910;2022-07-05T01:10:07;0.65;;;0.50;;
22628;SDS011;11481;53.694;9.910;2022-07-05T01:12:34;0.38;;;0.38;;
22628;SDS011;11481;53.694;9.910;2022-07-05T01:15:03;1.02;;;0.55;;
22628;SDS011;11481;53.694;9.910;2022-07-05T01:17:30;0.90;;;0.60;;
22628;SDS011;11481;53.694;9.910;2022-07-05T01:19:57;0.82;;;0.40;;
22628;SDS011;11481;53.694;9.910;2022-07-05T01:22:24;0.95;;;0.57;;
22628;SDS011;11481;53.694;9.910;2022-07-05T01:24:52;0.75;;;0.50;;
22628;SDS011;11481;53.694;9.910;2022-07-05T01:27:19;0.77;;;0.73;;
22628;SDS011;11481;53.694;9.910;2022-07-05T01:29:46;3.38;;;0.77;;
22628;SDS011;11481;53.694;9.910;2022-07-05T01:32:13;2.38;;;1.05;;
22628;SDS011;11481;53.694;9.910;2022-07-05T01:34:41;1.35;;;0.80;;
22628;SDS011;11481;53.694;9.910;2022-07-05T01:37:08;0.55;;;0.40;;
22628;SDS011;11481;53.694;9.910;2022-07-05T01:39:36;0.65;;;0.63;;
22628;SDS011;11481;53.694;9.910;2022-07-05T01:42:03;0.40;;;0.40;;
22628;SDS011;11481;53.694;9.910;2022-07-05T01:44:30;1.00;;;0.80;;
22628;SDS011;11481;53.694;9.910;2022-07-05T01:46:59;0.52;;;0.52;;
22628;SDS011;11481;53.694;9.910;2022-07-05T01:49:32;0.88;;;0.70;;
22628;SDS011;11481;53.694;9.910;2022-07-05T01:52:02;0.80;;;0.65;;
22628;SDS011;11481;53.694;9.910;2022-07-05T01:54:34;0.57;;;0.57;;
22628;SDS011;11481;53.694;9.910;2022-07-05T01:57:01;0.13;;;0.10;;
22628;SDS011;11481;53.694;9.910;2022-07-05T01:59:29;1.13;;;0.98;;
22628;SDS011;11481;53.694;9.910;2022-07-05T02:01:58;2.65;;;0.88;;
22628;SDS011;11481;53.694;9.910;2022-07-05T02:04:25;0.50;;;0.45;;
22628;SDS011;11481;53.694;9.910;2022-07-05T02:06:53;1.00;;;0.68;;
22628;SDS011;11481;53.694;9.910;2022-07-05T02:09:20;1.65;;;1.20;;
22628;SDS011;11481;53.694;9.910;2022-07-05T02:11:46;1.23;;;0.75;;
22628;SDS011;11481;53.694;9.910;2022-07-05T02:14:13;1.30;;;0.88;;
22628;SDS011;11481;53.694;9.910;2022-07-05T02:16:40;1.60;;;0.75;;
22628;SDS011;11481;53.694;9.910;2022-07-05T02:19:07;0.57;;;0.40;;
22628;SDS011;11481;53.694;9.910;2022-07-05T02:21:33;1.40;;;0.50;;
22628;SDS011;11481;53.694;9.910;2022-07-05T02:24:00;5.25;;;0.70;;
22628;SDS011;11481;53.694;9.910;2022-07-05T02:26:27;0.75;;;0.45;;
22628;SDS011;11481;53.694;9.910;2022-07-05T02:28:54;0.98;;;0.43;;
22628;SDS011;11481;53.694;9.910;2022-07-05T02:31:21;1.17;;;0.70;;
22628;SDS011;11481;53.694;9.910;2022-07-05T02:33:47;5.40;;;1.25;;
22628;SDS011;11481;53.694;9.910;2022-07-05T02:36:14;2.20;;;1.02;;
22628;SDS011;11481;53.694;9.910;2022-07-05T02:38:41;1.80;;;1.25;;
22628;SDS011;11481;53.694;9.910;2022-07-05T02:41:09;1.15;;;0.70;;
22628;SDS011;11481;53.694;9.910;2022-07-05T02:43:37;1.23;;;0.80;;
22628;SDS011;11481;53.694;9.910;2022-07-05T02:46:05;2.55;;;0.90;;
22628;SDS011;11481;53.694;9.910;2022-07-05T02:48:34;10.25;;;0.88;;
22628;SDS011;11481;53.694;9.910;2022-07-05T02:51:01;1.70;;;0.55;;
22628;SDS011;11481;53.694;9.910;2022-07-05T02:53:29;4.38;;;1.13;;
22628;SDS011;11481;53.694;9.910;2022-07-05T02:55:56;4.13;;;0.85;;
22628;SDS011;11481;53.694;9.910;2022-07-05T02:58:23;1.00;;;0.73;;
22628;SDS011;11481;53.694;9.910;2022-07-05T03:00:49;0.98;;;0.55;;
22628;SDS011;11481;53.694;9.910;2022-07-05T03:03:18;3.63;;;1.48;;
22628;SDS011;11481;53.694;9.910;2022-07-05T03:05:45;2.08;;;1.35;;
22628;SDS011;11481;53.694;9.910;2022-07-05T03:08:11;1.73;;;1.00;;
22628;SDS011;11481;53.694;9.910;2022-07-05T03:10:38;1.45;;;1.08;;
22628;SDS011;11481;53.694;9.910;2022-07-05T03:13:05;1.23;;;0.73;;
22628;SDS011;11481;53.694;9.910;2022-07-05T03:15:32;0.50;;;0.43;;
22628;SDS011;11481;53.694;9.910;2022-07-05T03:17:59;2.03;;;0.98;;
22628;SDS011;11481;53.694;9.910;2022-07-05T03:20:25;2.42;;;0.85;;
22628;SDS011;11481;53.694;9.910;2022-07-05T03:22:52;2.38;;;1.23;;
22628;SDS011;11481;53.694;9.910;2022-07-05T03:25:19;1.17;;;0.77;;
22628;SDS011;11481;53.694;9.910;2022-07-05T03:27:45;2.38;;;1.13;;
22628;SDS011;11481;53.694;9.910;2022-07-05T03:30:12;1.60;;;0.57;;
22628;SDS011;11481;53.694;9.910;2022-07-05T03:32:39;0.50;;;0.50;;
22628;SDS011;11481;53.694;9.910;2022-07-05T03:35:06;1.63;;;1.10;;
22628;SDS011;11481;53.694;9.910;2022-07-05T03:37:33;1.58;;;0.93;;
22628;SDS011;11481;53.694;9.910;2022-07-05T03:39:59;2.53;;;1.15;;
22628;SDS011;11481;53.694;9.910;2022-07-05T03:42:26;2.58;;;0.90;;
22628;SDS011;11481;53.694;9.910;2022-07-05T03:44:53;1.85;;;0.95;;
22628;SDS011;11481;53.694;9.910;2022-07-05T03:47:19;2.80;;;1.00;;
22628;SDS011;11481;53.694;9.910;2022-07-05T03:49:46;1.73;;;1.00;;
22628;SDS011;11481;53.694;9.910;2022-07-05T03:52:14;2.60;;;1.30;;
22628;SDS011;11481;53.694;9.910;2022-07-05T03:54:41;3.90;;;0.88;;
22628;SDS011;11481;53.694;9.910;2022-07-05T03:57:11;1.70;;;1.17;;
22628;SDS011;11481;53.694;9.910;2022-07-05T03:59:38;3.42;;;1.05;;
22628;SDS011;11481;53.694;9.910;2022-07-05T04:02:06;1.77;;;1.13;;
22628;SDS011;11481;53.694;9.910;2022-07-05T04:04:33;1.70;;;0.93;;
22628;SDS011;11481;53.694;9.910;2022-07-05T04:07:00;2.10;;;1.25;;
22628;SDS011;11481;53.694;9.910;2022-07-05T04:09:27;1.65;;;1.10;;
22628;SDS011;11481;53.694;9.910;2022-07-05T04:11:54;1.30;;;1.05;;
22628;SDS011;11481;53.694;9.910;2022-07-05T04:14:20;1.83;;;1.08;;
22628;SDS011;11481;53.694;9.910;2022-07-05T04:16:47;1.77;;;1.10;;
22628;SDS011;11481;53.694;9.910;2022-07-05T04:19:14;5.80;;;1.30;;
22628;SDS011;11481;53.694;9.910;2022-07-05T04:21:40;1.25;;;1.02;;
22628;SDS011;11481;53.694;9.910;2022-07-05T04:24:07;1.75;;;0.95;;
22628;SDS011;11481;53.694;9.910;2022-07-05T04:26:34;3.15;;;1.20;;
22628;SDS011;11481;53.694;9.910;2022-07-05T04:29:01;1.77;;;1.23;;
22628;SDS011;11481;53.694;9.910;2022-07-05T04:31:27;1.85;;;1.02;;
22628;SDS011;11481;53.694;9.910;2022-07-05T04:33:54;2.47;;;1.30;;
22628;SDS011;11481;53.694;9.910;2022-07-05T04:36:21;2.08;;;0.82;;
22628;SDS011;11481;53.694;9.910;2022-07-05T04:38:47;2.17;;;1.08;;
22628;SDS011;11481;53.694;9.910;2022-07-05T04:41:14;4.35;;;1.52;;
22628;SDS011;11481;53.694;9.910;2022-07-05T04:43:41;1.35;;;1.23;;
22628;SDS011;11481;53.694;9.910;2022-07-05T04:46:07;3.25;;;1.48;;
22628;SDS011;11481;53.694;9.910;2022-07-05T04:48:34;1.50;;;1.15;;
22628;SDS011;11481;53.694;9.910;2022-07-05T04:51:00;9.43;;;1.15;;
22628;SDS011;11481;53.694;9.910;2022-07-05T04:53:27;2.33;;;1.65;;
22628;SDS011;11481;53.694;9.910;2022-07-05T04:55:54;1.30;;;1.08;;
22628;SDS011;11481;53.694;9.910;2022-07-05T04:58:20;1.55;;;0.93;;
22628;SDS011;11481;53.694;9.910;2022-07-05T05:00:47;2.53;;;1.52;;
22628;SDS011;11481;53.694;9.910;2022-07-05T05:03:14;1.63;;;1.25;;
22628;SDS011;11481;53.694;9.910;2022-07-05T05:05:41;1.55;;;0.95;;
22628;SDS011;11481;53.694;9.910;2022-07-05T05:08:07;1.58;;;1.08;;
22628;SDS011;11481;53.694;9.910;2022-07-05T05:10:34;3.83;;;1.75;;
22628;SDS011;11481;53.694;9.910;2022-07-05T05:13:01;2.05;;;1.00;;
22628;SDS011;11481;53.694;9.910;2022-07-05T05:15:27;3.40;;;1.35;;
22628;SDS011;11481;53.694;9.910;2022-07-05T05:17:54;2.08;;;1.13;;
22628;SDS011;11481;53.694;9.910;2022-07-05T05:20:20;3.40;;;1.50;;
22628;SDS011;11481;53.694;9.910;2022-07-05T05:22:48;1.15;;;0.95;;
22628;SDS011;11481;53.694;9.910;2022-07-05T05:25:14;4.95;;;1.25;;
22628;SDS011;11481;53.694;9.910;2022-07-05T05:28:06;0.88;;;0.80;;
22628;SDS011;11481;53.694;9.910;2022-07-05T05:30:32;3.00;;;1.20;;
22628;SDS011;11481;53.694;9.910;2022-07-05T05:33:02;0.45;;;0.43;;
22628;SDS011;11481;53.694;9.910;2022-07-05T05:35:28;3.90;;;0.85;;
22628;SDS011;11481;53.694;9.910;2022-07-05T05:37:55;2.10;;;0.70;;
22628;SDS011;11481;53.694;9.910;2022-07-05T05:40:22;2.70;;;0.70;;
22628;SDS011;11481;53.694;9.910;2022-07-05T05:42:51;1.20;;;0.73;;
22628;SDS011;11481;53.694;9.910;2022-07-05T05:45:19;0.85;;;0.70;;
22628;SDS011;11481;53.694;9.910;2022-07-05T05:47:50;1.17;;;0.68;;
22628;SDS011;11481;53.694;9.910;2022-07-05T05:50:22;1.42;;;0.65;;
22628;SDS011;11481;53.694;9.910;2022-07-05T05:52:50;1.40;;;0.65;;
22628;SDS011;11481;53.694;9.910;2022-07-05T05:55:18;1.10;;;0.77;;
22628;SDS011;11481;53.694;9.910;2022-07-05T05:57:45;2.22;;;0.80;;
22628;SDS011;11481;53.694;9.910;2022-07-05T06:00:13;1.20;;;0.65;;
22628;SDS011;11481;53.694;9.910;2022-07-05T06:02:42;0.57;;;0.40;;
22628;SDS011;11481;53.694;9.910;2022-07-05T06:05:09;1.02;;;0.80;;
22628;SDS011;11481;53.694;9.910;2022-07-05T06:07:45;1.98;;;0.52;;
22628;SDS011;11481;53.694;9.910;2022-07-05T06:10:17;1.13;;;0.50;;
22628;SDS011;11481;53.694;9.910;2022-07-05T06:12:45;2.13;;;0.80;;
22628;SDS011;11481;53.694;9.910;2022-07-05T06:15:13;0.90;;;0.52;;
22628;SDS011;11481;53.694;9.910;2022-07-05T06:17:40;0.70;;;0.60;;
22628;SDS011;11481;53.694;9.910;2022-07-05T06:20:07;1.33;;;0.82;;
22628;SDS011;11481;53.694;9.910;2022-07-05T06:22:35;1.58;;;0.68;;
22628;SDS011;11481;53.694;9.910;2022-07-05T06:25:03;1.50;;;0.60;;
22628;SDS011;11481;53.694;9.910;2022-07-05T06:30:20;3.25;;;0.55;;
22628;SDS011;11481;53.694;9.910;2022-07-05T06:32:48;1.30;;;0.60;;
22628;SDS011;11481;53.694;9.910;2022-07-05T06:35:15;0.70;;;0.57;;
22628;SDS011;11481;53.694;9.910;2022-07-05T06:37:44;2.00;;;1.17;;
22628;SDS011;11481;53.694;9.910;2022-07-05T06:40:11;2.28;;;0.70;;
22628;SDS011;11481;53.694;9.910;2022-07-05T06:42:43;0.60;;;0.30;;
22628;SDS011;11481;53.694;9.910;2022-07-05T06:45:11;1.13;;;0.68;;
22628;SDS011;11481;53.694;9.910;2022-07-05T06:47:38;1.33;;;0.57;;
22628;SDS011;11481;53.694;9.910;2022-07-05T06:50:05;0.85;;;0.40;;
22628;SDS011;11481;53.694;9.910;2022-07-05T06:52:32;0.85;;;0.50;;
22628;SDS011;11481;53.694;9.910;2022-07-05T06:54:59;2.35;;;0.73;;
22628;SDS011;11481;53.694;9.910;2022-07-05T06:57:27;2.17;;;0.88;;
22628;SDS011;11481;53.694;9.910;2022-07-05T06:59:56;3.67;;;0.98;;
22628;SDS011;11481;53.694;9.910;2022-07-05T07:02:25;4.90;;;1.00;;
22628;SDS011;11481;53.694;9.910;2022-07-05T07:04:54;0.82;;;0.68;;
22628;SDS011;11481;53.694;9.910;2022-07-05T07:07:39;1.52;;;0.70;;
22628;SDS011;11481;53.694;9.910;2022-07-05T07:10:24;1.45;;;0.55;;
22628;SDS011;11481;53.694;9.910;2022-07-05T07:12:55;1.00;;;0.60;;
22628;SDS011;11481;53.694;9.910;2022-07-05T07:15:22;7.18;;;0.65;;
22628;SDS011;11481;53.694;9.910;2022-07-05T07:17:49;0.25;;;0.25;;
22628;SDS011;11481;53.694;9.910;2022-07-05T07:20:16;0.65;;;0.40;;
22628;SDS011;11481;53.694;9.910;2022-07-05T07:22:43;2.85;;;0.70;;
22628;SDS011;11481;53.694;9.910;2022-07-05T07:25:10;7.25;;;0.60;;
22628;SDS011;11481;53.694;9.910;2022-07-05T07:27:41;2.45;;;1.33;;
22628;SDS011;11481;53.694;9.910;2022-07-05T07:30:10;1.02;;;0.38;;
22628;SDS011;11481;53.694;9.910;2022-07-05T07:32:38;1.42;;;0.50;;
22628;SDS011;11481;53.694;9.910;2022-07-05T07:35:06;2.40;;;0.68;;
22628;SDS011;11481;53.694;9.910;2022-07-05T07:37:33;1.52;;;0.52;;
22628;SDS011;11481;53.694;9.910;2022-07-05T07:40:01;1.15;;;0.57;;
22628;SDS011;11481;53.694;9.910;2022-07-05T07:42:32;4.18;;;0.77;;
22628;SDS011;11481;53.694;9.910;2022-07-05T07:44:59;0.50;;;0.38;;
22628;SDS011;11481;53.694;9.910;2022-07-05T07:47:30;0.25;;;0.15;;
22628;SDS011;11481;53.694;9.910;2022-07-05T07:50:00;1.70;;;0.73;;
22628;SDS011;11481;53.694;9.910;2022-07-05T07:52:28;0.80;;;0.40;;
22628;SDS011;11481;53.694;9.910;2022-07-05T07:54:56;2.38;;;1.00;;
22628;SDS011;11481;53.694;9.910;2022-07-05T07:57:23;1.65;;;0.75;;
22628;SDS011;11481;53.694;9.910;2022-07-05T07:59:50;1.48;;;0.70;;
22628;SDS011;11481;53.694;9.910;2022-07-05T08:02:18;1.65;;;0.70;;
22628;SDS011;11481;53.694;9.910;2022-07-05T08:04:47;2.22;;;0.70;;
22628;SDS011;11481;53.694;9.910;2022-07-05T08:07:16;1.45;;;0.50;;
22628;SDS011;11481;53.694;9.910;2022-07-05T08:09:43;0.82;;;0.50;;
22628;SDS011;11481;53.694;9.910;2022-07-05T08:12:10;2.53;;;0.40;;
22628;SDS011;11481;53.694;9.910;2022-07-05T08:14:37;1.27;;;0.50;;
22628;SDS011;11481;53.694;9.910;2022-07-05T08:17:04;0.60;;;0.30;;
22628;SDS011;11481;53.694;9.910;2022-07-05T08:19:34;1.30;;;0.57;;
22628;SDS011;11481;53.694;9.910;2022-07-05T08:22:20;3.10;;;0.40;;
22628;SDS011;11481;53.694;9.910;2022-07-05T08:24:47;1.52;;;0.93;;
22628;SDS011;11481;53.694;9.910;2022-07-05T08:27:15;0.63;;;0.43;;
22628;SDS011;11481;53.694;9.910;2022-07-05T08:29:43;1.65;;;0.43;;
22628;SDS011;11481;53.694;9.910;2022-07-05T08:32:10;0.82;;;0.50;;
22628;SDS011;11481;53.694;9.910;2022-07-05T08:34:37;0.95;;;0.50;;
22628;SDS011;11481;53.694;9.910;2022-07-05T08:37:04;0.95;;;0.47;;
22628;SDS011;11481;53.694;9.910;2022-07-05T08:39:39;3.35;;;0.60;;
22628;SDS011;11481;53.694;9.910;2022-07-05T08:42:09;0.77;;;0.50;;
22628;SDS011;11481;53.694;9.910;2022-07-05T08:44:37;0.75;;;0.43;;
22628;SDS011;11481;53.694;9.910;2022-07-05T08:47:06;1.40;;;0.43;;
22628;SDS011;11481;53.694;9.910;2022-07-05T08:49:35;0.65;;;0.30;;
22628;SDS011;11481;53.694;9.910;2022-07-05T08:52:04;0.63;;;0.30;;
22628;SDS011;11481;53.694;9.910;2022-07-05T08:54:36;2.05;;;0.47;;
22628;SDS011;11481;53.694;9.910;2022-07-05T08:57:04;0.82;;;0.45;;
22628;SDS011;11481;53.694;9.910;2022-07-05T08:59:39;1.25;;;0.52;;
22628;SDS011;11481;53.694;9.910;2022-07-05T09:02:07;1.40;;;0.30;;
22628;SDS011;11481;53.694;9.910;2022-07-05T09:04:40;0.45;;;0.20;;
22628;SDS011;11481;53.694;9.910;2022-07-05T09:07:10;2.60;;;0.50;;
22628;SDS011;11481;53.694;9.910;2022-07-05T09:09:42;1.70;;;0.40;;
22628;SDS011;11481;53.694;9.910;2022-07-05T09:12:13;3.80;;;0.55;;
22628;SDS011;11481;53.694;9.910;2022-07-05T09:14:50;1.33;;;0.52;;
22628;SDS011;11481;53.694;9.910;2022-07-05T09:17:17;0.38;;;0.20;;
22628;SDS011;11481;53.694;9.910;2022-07-05T09:19:43;3.45;;;0.50;;
22628;SDS011;11481;53.694;9.910;2022-07-05T09:22:40;0.85;;;0.32;;
22628;SDS011;11481;53.694;9.910;2022-07-05T09:27:49;1.10;;;0.57;;
22628;SDS011;11481;53.694;9.910;2022-07-05T09:30:27;0.57;;;0.43;;
22628;SDS011;11481;53.694;9.910;2022-07-05T09:35:32;1.55;;;0.50;;
22628;SDS011;11481;53.694;9.910;2022-07-05T09:38:00;3.42;;;0.50;;
22628;SDS011;11481;53.694;9.910;2022-07-05T09:40:30;0.32;;;0.25;;
22628;SDS011;11481;53.694;9.910;2022-07-05T09:43:11;0.77;;;0.30;;
22628;SDS011;11481;53.694;9.910;2022-07-05T09:45:38;3.78;;;0.73;;
22628;SDS011;11481;53.694;9.910;2022-07-05T09:48:06;2.35;;;0.50;;
22628;SDS011;11481;53.694;9.910;2022-07-05T09:50:52;2.08;;;0.50;;
22628;SDS011;11481;53.694;9.910;2022-07-05T09:54:01;1.23;;;0.43;;
22628;SDS011;11481;53.694;9.910;2022-07-05T09:56:44;0.68;;;0.22;;
22628;SDS011;11481;53.694;9.910;2022-07-05T09:59:12;1.67;;;0.38;;
22628;SDS011;11481;53.694;9.910;2022-07-05T10:01:40;0.93;;;0.60;;
22628;SDS011;11481;53.694;9.910;2022-07-05T10:04:07;1.35;;;0.38;;
22628;SDS011;11481;53.694;9.910;2022-07-05T10:06:34;3.33;;;1.27;;
22628;SDS011;11481;53.694;9.910;2022-07-05T10:09:02;0.38;;;0.20;;
22628;SDS011;11481;53.694;9.910;2022-07-05T10:11:30;0.82;;;0.45;;
22628;SDS011;11481;53.694;9.910;2022-07-05T10:13:58;1.85;;;0.57;;
22628;SDS011;11481;53.694;9.910;2022-07-05T10:16:25;1.52;;;0.50;;
22628;SDS011;11481;53.694;9.910;2022-07-05T10:18:53;1.33;;;0.20;;
22628;SDS011;11481;53.694;9.910;2022-07-05T10:21:21;1.52;;;0.30;;
22628;SDS011;11481;53.694;9.910;2022-07-05T10:23:51;0.40;;;0.20;;
22628;SDS011;11481;53.694;9.910;2022-07-05T10:26:20;0.30;;;0.20;;
22628;SDS011;11481;53.694;9.910;2022-07-05T10:28:49;1.25;;;0.50;;
22628;SDS011;11481;53.694;9.910;2022-07-05T10:31:25;0.28;;;0.25;;
22628;SDS011;11481;53.694;9.910;2022-07-05T10:33:53;1.63;;;0.30;;
22628;SDS011;11481;53.694;9.910;2022-07-05T10:36:22;0.52;;;0.20;;
22628;SDS011;11481;53.694;9.910;2022-07-05T10:38:49;1.65;;;0.47;;
22628;SDS011;11481;53.694;9.910;2022-07-05T10:41:22;0.43;;;0.30;;
22628;SDS011;11481;53.694;9.910;2022-07-05T10:43:53;0.40;;;0.20;;
22628;SDS011;11481;53.694;9.910;2022-07-05T10:46:33;0.35;;;0.20;;
22628;SDS011;11481;53.694;9.910;2022-07-05T10:49:14;2.50;;;0.43;;
22628;SDS011;11481;53.694;9.910;2022-07-05T10:51:43;0.30;;;0.20;;
22628;SDS011;11481;53.694;9.910;2022-07-05T10:54:18;0.55;;;0.25;;
22628;SDS011;11481;53.694;9.910;2022-07-05T10:57:19;1.48;;;0.40;;
22628;SDS011;11481;53.694;9.910;2022-07-05T11:02:32;3.05;;;0.73;;
22628;SDS011;11481;53.694;9.910;2022-07-05T11:04:59;2.13;;;0.40;;
22628;SDS011;11481;53.694;9.910;2022-07-05T11:07:56;0.80;;;0.47;;
22628;SDS011;11481;53.694;9.910;2022-07-05T11:10:26;0.68;;;0.38;;
22628;SDS011;11481;53.694;9.910;2022-07-05T11:12:52;0.57;;;0.40;;
22628;SDS011;11481;53.694;9.910;2022-07-05T11:15:19;0.40;;;0.30;;
22628;SDS011;11481;53.694;9.910;2022-07-05T11:17:48;1.13;;;0.35;;
22628;SDS011;11481;53.694;9.910;2022-07-05T11:20:30;0.80;;;0.30;;
22628;SDS011;11481;53.694;9.910;2022-07-05T11:23:02;1.73;;;0.50;;
22628;SDS011;11481;53.694;9.910;2022-07-05T11:25:31;0.68;;;0.40;;
22628;SDS011;11481;53.694;9.910;2022-07-05T11:28:07;0.32;;;0.22;;
22628;SDS011;11481;53.694;9.910;2022-07-05T11:30:51;0.35;;;0.25;;
22628;SDS011;11481;53.694;9.910;2022-07-05T11:35:57;0.52;;;0.20;;
22628;SDS011;11481;53.694;9.910;2022-07-05T11:38:23;0.85;;;0.52;;
22628;SDS011;11481;53.694;9.910;2022-07-05T11:41:10;1.35;;;0.70;;
22628;SDS011;11481;53.694;9.910;2022-07-05T11:43:40;1.00;;;0.50;;
22628;SDS011;11481;53.694;9.910;2022-07-05T11:46:08;1.20;;;0.52;;
22628;SDS011;11481;53.694;9.910;2022-07-05T11:48:55;3.30;;;0.60;;
22628;SDS011;11481;53.694;9.910;2022-07-05T11:51:22;2.80;;;0.43;;
22628;SDS011;11481;53.694;9.910;2022-07-05T11:53:49;0.85;;;0.38;;
22628;SDS011;11481;53.694;9.910;2022-07-05T11:56:35;0.75;;;0.40;;
22628;SDS011;11481;53.694;9.910;2022-07-05T11:59:16;0.75;;;0.50;;
22628;SDS011;11481;53.694;9.910;2022-07-05T12:01:44;0.30;;;0.25;;
22628;SDS011;11481;53.694;9.910;2022-07-05T12:04:11;0.90;;;0.60;;
22628;SDS011;11481;53.694;9.910;2022-07-05T12:06:41;1.00;;;0.50;;
22628;SDS011;11481;53.694;9.910;2022-07-05T12:09:08;0.82;;;0.47;;
22628;SDS011;11481;53.694;9.910;2022-07-05T12:11:35;1.80;;;0.40;;
22628;SDS011;11481;53.694;9.910;2022-07-05T12:14:21;0.50;;;0.40;;
22628;SDS011;11481;53.694;9.910;2022-07-05T12:16:49;2.53;;;0.60;;
22628;SDS011;11481;53.694;9.910;2022-07-05T12:19:36;1.58;;;0.68;;
22628;SDS011;11481;53.694;9.910;2022-07-05T12:22:03;1.17;;;0.57;;
22628;SDS011;11481;53.694;9.910;2022-07-05T12:24:30;1.13;;;0.52;;
22628;SDS011;11481;53.694;9.910;2022-07-05T12:26:56;0.77;;;0.40;;
22628;SDS011;11481;53.694;9.910;2022-07-05T12:29:23;1.08;;;0.50;;
22628;SDS011;11481;53.694;9.910;2022-07-05T12:31:57;0.35;;;0.30;;
22628;SDS011;11481;53.694;9.910;2022-07-05T12:34:25;2.33;;;0.70;;
22628;SDS011;11481;53.694;9.910;2022-07-05T12:36:51;0.98;;;0.52;;
22628;SDS011;11481;53.694;9.910;2022-07-05T12:39:18;1.08;;;0.40;;
22628;SDS011;11481;53.694;9.910;2022-07-05T12:41:45;1.10;;;0.45;;
22628;SDS011;11481;53.694;9.910;2022-07-05T12:44:11;2.15;;;0.75;;
22628;SDS011;11481;53.694;9.910;2022-07-05T12:46:39;2.22;;;0.85;;
22628;SDS011;11481;53.694;9.910;2022-07-05T12:49:09;0.52;;;0.40;;
22628;SDS011;11481;53.694;9.910;2022-07-05T12:51:38;0.80;;;0.43;;
22628;SDS011;11481;53.694;9.910;2022-07-05T12:54:06;1.35;;;0.65;;
22628;SDS011;11481;53.694;9.910;2022-07-05T12:56:56;0.60;;;0.43;;
22628;SDS011;11481;53.694;9.910;2022-07-05T13:00:05;2.88;;;0.68;;
22628;SDS011;11481;53.694;9.910;2022-07-05T13:02:34;1.65;;;0.52;;
22628;SDS011;11481;53.694;9.910;2022-07-05T13:05:09;0.82;;;0.50;;
22628;SDS011;11481;53.694;9.910;2022-07-05T13:07:48;1.75;;;0.65;;
22628;SDS011;11481;53.694;9.910;2022-07-05T13:10:19;2.15;;;0.52;;
22628;SDS011;11481;53.694;9.910;2022-07-05T13:12:48;0.50;;;0.38;;
22628;SDS011;11481;53.694;9.910;2022-07-05T13:15:15;1.15;;;0.32;;
22628;SDS011;11481;53.694;9.910;2022-07-05T13:17:43;0.40;;;0.25;;
22628;SDS011;11481;53.694;9.910;2022-07-05T13:20:12;1.70;;;0.60;;
22628;SDS011;11481;53.694;9.910;2022-07-05T13:22:40;2.08;;;0.85;;
22628;SDS011;11481;53.694;9.910;2022-07-05T13:25:06;2.38;;;1.10;;
22628;SDS011;11481;53.694;9.910;2022-07-05T13:27:33;0.98;;;0.57;;
22628;SDS011;11481;53.694;9.910;2022-07-05T13:30:01;0.52;;;0.30;;
22628;SDS011;11481;53.694;9.910;2022-07-05T13:32:29;0.40;;;0.20;;
22628;SDS011;11481;53.694;9.910;2022-07-05T13:34:56;1.17;;;0.40;;
22628;SDS011;11481;53.694;9.910;2022-07-05T13:37:22;3.40;;;0.40;;
22628;SDS011;11481;53.694;9.910;2022-07-05T13:39:49;2.15;;;0.43;;
22628;SDS011;11481;53.694;9.910;2022-07-05T13:42:16;0.95;;;0.38;;
22628;SDS011;11481;53.694;9.910;2022-07-05T13:44:43;0.82;;;0.40;;
22628;SDS011;11481;53.694;9.910;2022-07-05T13:47:09;1.00;;;0.47;;
22628;SDS011;11481;53.694;9.910;2022-07-05T13:49:37;0.60;;;0.30;;
22628;SDS011;11481;53.694;9.910;2022-07-05T13:52:06;0.65;;;0.40;;
22628;SDS011;11481;53.694;9.910;2022-07-05T13:54:32;0.35;;;0.25;;
22628;SDS011;11481;53.694;9.910;2022-07-05T13:57:00;0.68;;;0.30;;
22628;SDS011;11481;53.694;9.910;2022-07-05T13:59:26;0.95;;;0.50;;
22628;SDS011;11481;53.694;9.910;2022-07-05T14:01:53;0.77;;;0.43;;
22628;SDS011;11481;53.694;9.910;2022-07-05T14:04:20;0.88;;;0.45;;
22628;SDS011;11481;53.694;9.910;2022-07-05T14:06:47;0.82;;;0.30;;
22628;SDS011;11481;53.694;9.910;2022-07-05T14:09:16;0.40;;;0.30;;
22628;SDS011;11481;53.694;9.910;2022-07-05T14:11:42;1.63;;;0.50;;
22628;SDS011;11481;53.694;9.910;2022-07-05T14:14:09;0.80;;;0.50;;
22628;SDS011;11481;53.694;9.910;2022-07-05T14:16:39;1.98;;;0.70;;
22628;SDS011;11481;53.694;9.910;2022-07-05T14:19:05;3.65;;;0.60;;
22628;SDS011;11481;53.694;9.910;2022-07-05T14:21:32;4.15;;;0.60;;
22628;SDS011;11481;53.694;9.910;2022-07-05T14:24:04;0.20;;;0.13;;
22628;SDS011;11481;53.694;9.910;2022-07-05T14:26:31;1.90;;;0.40;;
22628;SDS011;11481;53.694;9.910;2022-07-05T14:28:59;0.40;;;0.30;;
22628;SDS011;11481;53.694;9.910;2022-07-05T14:31:27;0.40;;;0.30;;
22628;SDS011;11481;53.694;9.910;2022-07-05T14:33:57;0.73;;;0.30;;
22628;SDS011;11481;53.694;9.910;2022-07-05T14:36:25;0.60;;;0.35;;
22628;SDS011;11481;53.694;9.910;2022-07-05T14:38:53;7.28;;;0.68;;
22628;SDS011;11481;53.694;9.910;2022-07-05T14:41:19;1.10;;;0.50;;
22628;SDS011;11481;53.694;9.910;2022-07-05T14:43:46;3.90;;;0.90;;
22628;SDS011;11481;53.694;9.910;2022-07-05T14:46:13;0.70;;;0.30;;
22628;SDS011;11481;53.694;9.910;2022-07-05T14:49:08;1.60;;;0.80;;
22628;SDS011;11481;53.694;9.910;2022-07-05T14:51:35;4.50;;;0.60;;
22628;SDS011;11481;53.694;9.910;2022-07-05T14:54:02;0.57;;;0.40;;
22628;SDS011;11481;53.694;9.910;2022-07-05T14:56:29;1.33;;;0.30;;
22628;SDS011;11481;53.694;9.910;2022-07-05T14:58:56;2.20;;;0.30;;
22628;SDS011;11481;53.694;9.910;2022-07-05T15:01:23;2.47;;;0.25;;
22628;SDS011;11481;53.694;9.910;2022-07-05T15:03:49;5.90;;;0.50;;
22628;SDS011;11481;53.694;9.910;2022-07-05T15:06:16;0.50;;;0.38;;
22628;SDS011;11481;53.694;9.910;2022-07-05T15:08:43;2.08;;;0.40;;
22628;SDS011;11481;53.694;9.910;2022-07-05T15:11:09;0.30;;;0.22;;
22628;SDS011;11481;53.694;9.910;2022-07-05T15:13:36;0.73;;;0.35;;